Tarnow, Poland

5:13 AM CET on November 26, 2014 (GMT +0100)
Tarnow | Change Station
CLOSE
Current Station
Personal Weather Station
Location: Moscice, MALOPOLSKA
Elevation: 643 ft
Nearby Weather Stations

Elev 643 ft 50.01 °N, 20.93 °E | Updated 11 seconds ago

Fog
Fog
36.2 °F
Feels Like 36 °F
N
0.0
Wind Variable Wind from SE
Gusts 0.0 mph

Today
High -- | Low -- °F
--% Chance of Precip.
Yesterday
High -- | Low -- °F
Precip. -- in
7:05 AM 3:40 PM
Waxing Crescent, 16% visible
Pressure 30.30 in
Visibility 0.3 miles
Clouds Overcast 100 ft
Windchill 36 °F
Dew Point 35 °F
Humidity 97%
Rainfall 0.00 in
Snow Depth Not available.
UV 0 out of 12
Pollen Not available.
Air Quality Not available.
Flu Activity Not available.
METAR EPRZ 260400Z 10003KT 0500 R27/0700 FG OVC001 02/02 Q1026

More Conditions Fewer Conditions

Pressure 30.30 in
Visibility 0.3 miles
Clouds Overcast 100 ft
Windchill 36 °F
Dew Point 35 °F
Humidity 97%
Rainfall 0.00 in
Snow Depth Not available.
UV 0 out of 12
Pollen Not available.
Air Quality Not available.
Flu Activity Not available.
METAR EPRZ 260400Z 10003KT 0500 R27/0700 FG OVC001 02/02 Q1026

More Conditions Fewer Conditions

10-Day Weather Forecast

Almanac

Astronomy

Nov. 26, 2014 Rise Set
Actual Time
Civil Twilight
Nautical Twilight
Astronomical Twilight
Moon
Length of Visible Light
Length of Day
Tomorrow will be .
, % of the Moon is Illuminated

Today's Extremes

Country Highs Country Lows

Community

WunderPhotos

Upload Photos

1,773,679 photos uploaded!

WunderBlogs® & News

Nearby

Air Quality

  Air Quality AQ Index Pollutant
Not available.

Snow Depth

Station Depth Elevation

Earthquake Activity

City Distance Mag. Time & Date
Minimum magnitude displayed is 2.5.

Coastal Water Temperatures

Place Temperature

Nearby Weather Stations